createdAt,value
2022-09-24T00:01:30.171Z,1.70
2022-09-24T00:04:03.017Z,1.73
2022-09-24T00:06:31.309Z,1.40
2022-09-24T00:08:58.171Z,1.52
2022-09-24T00:11:27.613Z,1.52
2022-09-24T00:13:56.263Z,1.30
2022-09-24T00:16:26.218Z,1.17
2022-09-24T00:18:54.223Z,1.33
2022-09-24T00:21:24.181Z,1.10
2022-09-24T00:23:53.690Z,1.40
2022-09-24T00:26:40.054Z,1.23
2022-09-24T00:29:08.153Z,1.10
2022-09-24T00:31:35.526Z,1.60
2022-09-24T00:34:02.943Z,1.38
2022-09-24T00:36:29.618Z,1.40
2022-09-24T00:38:58.598Z,1.70
2022-09-24T00:41:31.361Z,1.30
2022-09-24T00:43:59.141Z,1.50
2022-09-24T00:46:37.247Z,1.30
2022-09-24T00:49:20.357Z,1.40
2022-09-24T00:51:50.391Z,1.50
2022-09-24T00:54:24.289Z,1.30
2022-09-24T00:56:52.588Z,1.30
2022-09-24T00:59:24.014Z,1.25
2022-09-24T01:01:54.055Z,1.30
2022-09-24T01:04:21.883Z,1.42
2022-09-24T01:06:50.009Z,1.52
2022-09-24T01:09:19.166Z,1.42
2022-09-24T01:12:07.530Z,1.20
2022-09-24T01:14:43.777Z,0.90
2022-09-24T01:17:30.779Z,1.27
2022-09-24T01:20:16.408Z,1.25
2022-09-24T01:22:55.354Z,1.20
2022-09-24T01:25:31.243Z,1.17
2022-09-24T01:28:19.893Z,1.00
2022-09-24T01:30:51.233Z,1.27
2022-09-24T01:33:22.827Z,1.45
2022-09-24T01:35:55.377Z,1.35
2022-09-24T01:38:26.281Z,1.17
2022-09-24T01:40:55.706Z,1.10
2022-09-24T01:43:25.719Z,1.13
2022-09-24T01:45:53.494Z,1.20
2022-09-24T01:48:22.053Z,0.93
2022-09-24T01:51:02.732Z,0.90
2022-09-24T01:53:40.530Z,1.00
2022-09-24T01:56:16.142Z,1.20
2022-09-24T01:58:51.907Z,1.08
2022-09-24T02:01:24.532Z,1.10
2022-09-24T02:04:06.894Z,2.38
2022-09-24T02:06:38.899Z,1.70
2022-09-24T02:09:06.229Z,1.30
2022-09-24T02:11:37.320Z,1.30
2022-09-24T02:14:09.634Z,1.33
2022-09-24T02:16:41.951Z,1.30
2022-09-24T02:19:25.263Z,1.10
2022-09-24T02:21:52.773Z,1.38
2022-09-24T02:24:50.574Z,1.10
2022-09-24T02:27:18.706Z,1.30
2022-09-24T02:29:46.307Z,1.30
2022-09-24T02:32:18.438Z,1.20
2022-09-24T02:34:54.005Z,1.20
2022-09-24T02:37:23.975Z,1.40
2022-09-24T02:39:51.299Z,1.40
2022-09-24T02:42:19.781Z,1.30
2022-09-24T02:44:47.647Z,1.55
2022-09-24T02:47:14.674Z,1.27
2022-09-24T02:49:41.303Z,1.00
2022-09-24T02:52:08.029Z,1.10
2022-09-24T02:54:34.920Z,1.20
2022-09-24T02:57:01.544Z,1.13
2022-09-24T02:59:28.272Z,1.27
2022-09-24T03:01:55.276Z,1.30
2022-09-24T03:04:21.979Z,1.30
2022-09-24T03:06:48.866Z,1.27
2022-09-24T03:09:15.668Z,1.20
2022-09-24T03:11:42.383Z,1.33
2022-09-24T03:14:09.216Z,1.40
2022-09-24T03:16:35.969Z,1.40
2022-09-24T03:19:03.022Z,1.35
2022-09-24T03:21:29.868Z,1.20
2022-09-24T03:23:56.538Z,1.20
2022-09-24T03:26:23.454Z,1.10
2022-09-24T03:28:50.137Z,1.00
2022-09-24T03:31:17.067Z,1.27
2022-09-24T03:33:46.826Z,1.20
2022-09-24T03:36:25.935Z,1.60
2022-09-24T03:38:56.688Z,1.30
2022-09-24T03:41:26.079Z,0.93
2022-09-24T03:43:52.902Z,1.30
2022-09-24T03:46:19.655Z,1.10
2022-09-24T03:48:47.515Z,1.10
2022-09-24T03:51:18.858Z,1.20
2022-09-24T03:53:46.209Z,1.10
2022-09-24T03:56:13.537Z,1.10
2022-09-24T03:58:42.030Z,1.05
2022-09-24T04:01:10.776Z,1.20
2022-09-24T04:03:37.814Z,1.08
2022-09-24T04:06:05.290Z,1.10
2022-09-24T04:08:32.493Z,1.20
2022-09-24T04:10:59.500Z,1.05
2022-09-24T04:13:26.221Z,1.00
2022-09-24T04:15:54.022Z,1.05
2022-09-24T04:18:21.724Z,1.13
2022-09-24T04:20:48.662Z,1.20
2022-09-24T04:23:15.633Z,1.38
2022-09-24T04:25:42.307Z,1.08
2022-09-24T04:28:10.099Z,1.13
2022-09-24T04:30:38.375Z,1.20
2022-09-24T04:33:06.164Z,0.95
2022-09-24T04:35:36.248Z,1.10
2022-09-24T04:38:04.957Z,1.08
2022-09-24T04:40:32.631Z,1.00
2022-09-24T04:42:59.636Z,1.35
2022-09-24T04:45:26.952Z,1.15
2022-09-24T04:47:57.363Z,0.90
2022-09-24T04:50:29.280Z,1.00
2022-09-24T04:52:56.283Z,1.27
2022-09-24T04:55:24.205Z,1.05
2022-09-24T04:57:51.284Z,1.05
2022-09-24T05:00:21.008Z,0.90
2022-09-24T05:02:55.650Z,1.20
2022-09-24T05:05:22.620Z,1.52
2022-09-24T05:07:49.616Z,0.90
2022-09-24T05:10:16.336Z,1.10
2022-09-24T05:12:42.931Z,1.05
2022-09-24T05:15:10.012Z,0.98
2022-09-24T05:17:40.304Z,1.30
2022-09-24T05:20:08.785Z,1.10
2022-09-24T05:22:36.698Z,1.23
2022-09-24T05:25:03.900Z,1.20
2022-09-24T05:27:30.561Z,1.35
2022-09-24T05:29:57.263Z,1.10
2022-09-24T05:32:24.024Z,1.02
2022-09-24T05:34:51.099Z,1.15
2022-09-24T05:37:18.347Z,1.30
2022-09-24T05:39:44.998Z,1.20
2022-09-24T05:42:14.439Z,1.10
2022-09-24T05:44:45.614Z,1.20
2022-09-24T05:47:15.892Z,1.38
2022-09-24T05:49:43.209Z,1.17
2022-09-24T05:52:10.096Z,1.33
2022-09-24T05:54:36.726Z,1.23
2022-09-24T05:57:03.586Z,1.25
2022-09-24T05:59:30.216Z,1.00
2022-09-24T06:01:57.027Z,1.20
2022-09-24T06:04:23.675Z,1.88
2022-09-24T06:06:50.423Z,1.30
2022-09-24T06:09:17.117Z,1.20
2022-09-24T06:11:44.468Z,1.52
2022-09-24T06:14:11.390Z,1.50
2022-09-24T06:16:38.213Z,1.25
2022-09-24T06:19:05.135Z,1.38
2022-09-24T06:21:31.888Z,1.63
2022-09-24T06:23:58.575Z,1.38
2022-09-24T06:26:26.484Z,1.10
2022-09-24T06:28:53.298Z,1.52
2022-09-24T06:31:20.501Z,1.23
2022-09-24T06:33:47.552Z,1.35
2022-09-24T06:36:14.898Z,1.38
2022-09-24T06:38:42.150Z,1.13
2022-09-24T06:41:10.523Z,1.40
2022-09-24T06:43:37.682Z,1.23
2022-09-24T06:46:05.285Z,1.10
2022-09-24T06:48:32.470Z,1.27
2022-09-24T06:50:59.797Z,1.17
2022-09-24T06:53:27.474Z,1.00
2022-09-24T06:55:58.913Z,1.10
2022-09-24T06:58:26.637Z,1.17
2022-09-24T07:00:59.098Z,1.20
2022-09-24T07:03:27.899Z,1.55
2022-09-24T07:05:55.225Z,1.02
2022-09-24T07:08:22.727Z,1.15
2022-09-24T07:10:49.935Z,1.10
2022-09-24T07:13:16.917Z,1.08
2022-09-24T07:15:44.771Z,1.00
2022-09-24T07:18:12.816Z,0.80
2022-09-24T07:20:40.071Z,0.80
2022-09-24T07:23:12.854Z,1.10
2022-09-24T07:25:40.265Z,1.08
2022-09-24T07:28:09.831Z,1.33
2022-09-24T07:30:39.792Z,1.38
2022-09-24T07:33:09.884Z,1.02
2022-09-24T07:35:40.936Z,1.10
2022-09-24T07:38:12.529Z,1.00
2022-09-24T07:40:39.905Z,1.17
2022-09-24T07:43:12.597Z,0.90
2022-09-24T07:45:39.618Z,0.88
2022-09-24T07:48:07.027Z,1.38
2022-09-24T07:50:39.455Z,1.10
2022-09-24T07:53:07.057Z,1.35
2022-09-24T07:55:39.592Z,0.80
2022-09-24T07:58:12.165Z,0.95
2022-09-24T08:00:39.319Z,1.00
2022-09-24T08:03:06.515Z,1.13
2022-09-24T08:05:33.601Z,1.10
2022-09-24T08:08:00.575Z,1.08
2022-09-24T08:10:28.699Z,1.10
2022-09-24T08:12:57.391Z,1.20
2022-09-24T08:15:24.217Z,1.45
2022-09-24T08:17:51.326Z,1.00
2022-09-24T08:20:18.378Z,1.13
2022-09-24T08:22:45.337Z,1.15
2022-09-24T08:25:12.090Z,1.10
2022-09-24T08:27:38.945Z,0.93
2022-09-24T08:30:06.781Z,1.35
2022-09-24T08:32:33.693Z,1.08
2022-09-24T08:35:00.345Z,1.30
2022-09-24T08:37:30.227Z,1.17
2022-09-24T08:39:56.959Z,1.10
2022-09-24T08:42:41.850Z,0.90
2022-09-24T08:45:30.092Z,0.82
2022-09-24T08:48:04.884Z,1.05
2022-09-24T08:50:35.126Z,1.13
2022-09-24T08:53:15.971Z,1.20
2022-09-24T08:55:52.806Z,1.00
2022-09-24T08:59:01.575Z,0.93
2022-09-24T09:01:56.832Z,0.90
2022-09-24T09:04:32.463Z,1.00
2022-09-24T09:07:18.044Z,1.10
2022-09-24T09:10:01.300Z,1.35
2022-09-24T09:12:35.840Z,1.20
2022-09-24T09:15:12.613Z,1.40
2022-09-24T09:17:54.916Z,1.00
2022-09-24T09:20:35.350Z,1.73
2022-09-24T09:24:00.835Z,1.33
2022-09-24T09:26:27.538Z,1.08
2022-09-24T09:29:00.150Z,0.98
2022-09-24T09:31:38.827Z,1.15
2022-09-24T09:34:37.835Z,1.15
2022-09-24T09:37:16.322Z,1.02
2022-09-24T09:39:53.360Z,1.00
2022-09-24T09:42:27.615Z,0.98
2022-09-24T09:44:54.851Z,1.10
2022-09-24T09:48:12.903Z,1.00
2022-09-24T09:50:49.616Z,1.10
2022-09-24T09:53:21.829Z,1.95
2022-09-24T09:55:56.659Z,1.10
2022-09-24T09:58:28.980Z,1.05
2022-09-24T10:01:13.210Z,1.10
2022-09-24T10:03:52.135Z,1.15
2022-09-24T10:06:27.313Z,1.10
2022-09-24T10:08:54.902Z,1.10
2022-09-24T10:14:11.549Z,1.13
2022-09-24T10:17:07.427Z,1.15
2022-09-24T10:19:39.163Z,1.33
2022-09-24T10:22:21.655Z,1.33
2022-09-24T10:24:49.716Z,1.52
2022-09-24T10:27:42.775Z,1.45
2022-09-24T10:30:34.222Z,1.50
2022-09-24T10:33:03.714Z,1.25
2022-09-24T10:35:36.253Z,1.00
2022-09-24T10:38:16.206Z,1.33
2022-09-24T10:40:43.053Z,1.45
2022-09-24T10:43:22.261Z,1.20
2022-09-24T10:45:58.080Z,1.45
2022-09-24T10:48:32.883Z,1.20
2022-09-24T10:51:28.768Z,1.17
2022-09-24T10:54:29.681Z,1.00
2022-09-24T10:56:59.546Z,1.25
2022-09-24T10:59:39.640Z,1.20
2022-09-24T11:02:29.156Z,1.13
2022-09-24T11:05:09.131Z,1.30
2022-09-24T11:08:00.438Z,1.10
2022-09-24T11:11:03.631Z,1.30
2022-09-24T11:13:47.919Z,1.33
2022-09-24T11:16:17.226Z,1.10
2022-09-24T11:19:00.271Z,1.10
2022-09-24T11:22:01.151Z,1.00
2022-09-24T11:24:33.827Z,1.08
2022-09-24T11:27:25.895Z,1.27
2022-09-24T11:30:21.816Z,1.00
2022-09-24T11:33:18.327Z,1.10
2022-09-24T11:36:25.411Z,1.30
2022-09-24T11:39:13.855Z,1.00
2022-09-24T11:41:52.634Z,1.15
2022-09-24T11:44:45.628Z,1.30
2022-09-24T11:47:12.188Z,1.42
2022-09-24T11:50:00.420Z,1.65
2022-09-24T11:52:41.536Z,1.25
2022-09-24T11:55:17.200Z,0.98
2022-09-24T11:57:54.604Z,1.48
2022-09-24T12:00:22.156Z,1.20
2022-09-24T12:02:55.809Z,1.17
2022-09-24T12:05:40.344Z,1.30
2022-09-24T12:08:27.830Z,0.93
2022-09-24T12:11:04.315Z,1.30
2022-09-24T12:13:57.100Z,1.20
2022-09-24T12:16:29.375Z,1.23
2022-09-24T12:19:02.942Z,1.43
2022-09-24T12:21:45.520Z,1.27
2022-09-24T12:24:19.435Z,1.20
2022-09-24T12:26:47.744Z,1.33
2022-09-24T12:29:59.356Z,1.10
2022-09-24T12:32:57.252Z,1.20
2022-09-24T12:35:55.210Z,1.42
2022-09-24T12:38:37.816Z,1.13
2022-09-24T12:41:28.517Z,1.10
2022-09-24T12:44:10.430Z,1.02
2022-09-24T12:46:45.751Z,1.85
2022-09-24T12:49:26.589Z,1.48
2022-09-24T12:51:55.659Z,1.30
2022-09-24T12:54:34.563Z,1.38
2022-09-24T12:57:15.450Z,1.30
2022-09-24T13:00:02.225Z,1.40
2022-09-24T13:02:47.112Z,1.30
2022-09-24T13:05:23.190Z,1.10
2022-09-24T13:07:57.816Z,1.27
2022-09-24T13:10:28.326Z,1.40
2022-09-24T13:12:56.774Z,1.23
2022-09-24T13:15:35.284Z,1.30
2022-09-24T13:18:04.480Z,1.40
2022-09-24T13:20:32.776Z,1.20
2022-09-24T13:23:35.441Z,1.27
2022-09-24T13:26:05.056Z,1.38
2022-09-24T13:28:58.372Z,1.10
2022-09-24T13:31:28.205Z,1.40
2022-09-24T13:34:18.162Z,1.27
2022-09-24T13:37:11.615Z,1.30
2022-09-24T13:39:46.391Z,1.60
2022-09-24T13:42:45.489Z,1.20
2022-09-24T13:45:18.732Z,1.50
2022-09-24T13:50:36.040Z,1.45
2022-09-24T13:53:12.634Z,1.33
2022-09-24T13:55:47.490Z,1.17
2022-09-24T13:58:29.656Z,1.75
2022-09-24T14:00:59.915Z,2.42
2022-09-24T14:03:29.918Z,1.60
2022-09-24T14:05:59.968Z,1.35
2022-09-24T14:08:30.010Z,1.23
2022-09-24T14:11:12.955Z,1.40
2022-09-24T14:13:45.845Z,1.10
2022-09-24T14:16:17.966Z,1.50
2022-09-24T14:18:45.799Z,1.20
2022-09-24T14:21:32.967Z,1.55
2022-09-24T14:24:20.441Z,1.70
2022-09-24T14:27:04.696Z,1.38
2022-09-24T14:29:47.866Z,1.70
2022-09-24T14:32:24.971Z,1.40
2022-09-24T14:34:54.899Z,1.75
2022-09-24T14:37:46.492Z,1.60
2022-09-24T14:40:16.762Z,1.50
2022-09-24T14:42:55.434Z,1.75
2022-09-24T14:45:27.018Z,2.00
2022-09-24T14:48:28.757Z,1.63
2022-09-24T14:50:55.592Z,1.70
2022-09-24T14:53:29.828Z,1.55
2022-09-24T14:55:57.622Z,1.25
2022-09-24T14:58:31.258Z,1.98
2022-09-24T15:01:20.233Z,1.92
2022-09-24T15:03:50.217Z,1.67
2022-09-24T15:06:26.418Z,1.67
2022-09-24T15:09:04.178Z,1.33
2022-09-24T15:11:36.584Z,1.23
2022-09-24T15:14:27.861Z,1.47
2022-09-24T15:16:55.510Z,1.65
2022-09-24T15:19:25.487Z,1.73
2022-09-24T15:21:56.860Z,1.70
2022-09-24T15:24:24.610Z,1.45
2022-09-24T15:27:03.528Z,1.30
2022-09-24T15:29:30.652Z,2.00
2022-09-24T15:31:58.319Z,1.50
2022-09-24T15:34:25.834Z,2.00
2022-09-24T15:36:55.515Z,1.70
2022-09-24T15:39:25.534Z,1.40
2022-09-24T15:41:52.315Z,1.30
2022-09-24T15:44:28.327Z,1.13
2022-09-24T15:46:58.215Z,1.27
2022-09-24T15:49:25.663Z,1.02
2022-09-24T15:51:56.011Z,1.65
2022-09-24T15:54:24.886Z,1.52
2022-09-24T15:56:52.722Z,1.20
2022-09-24T15:59:21.598Z,1.67
2022-09-24T16:01:51.299Z,1.33
2022-09-24T16:04:18.449Z,1.88
2022-09-24T16:06:45.252Z,1.33
2022-09-24T16:09:12.164Z,1.45
2022-09-24T16:11:39.151Z,1.48
2022-09-24T16:14:05.856Z,1.58
2022-09-24T16:16:32.575Z,1.73
2022-09-24T16:18:59.350Z,1.30
2022-09-24T16:21:26.002Z,1.40
2022-09-24T16:23:56.771Z,1.40
2022-09-24T16:26:24.526Z,2.10
2022-09-24T16:28:51.738Z,1.70
2022-09-24T16:31:19.998Z,1.20
2022-09-24T16:33:47.072Z,1.65
2022-09-24T16:36:14.039Z,1.38
2022-09-24T16:38:40.766Z,2.13
2022-09-24T16:41:08.286Z,1.65
2022-09-24T16:43:34.949Z,1.65
2022-09-24T16:46:04.037Z,1.45
2022-09-24T16:48:31.962Z,3.28
2022-09-24T16:51:06.339Z,1.80
2022-09-24T16:53:34.944Z,1.55
2022-09-24T16:56:10.115Z,1.95
2022-09-24T16:58:36.867Z,1.30
2022-09-24T17:01:05.785Z,1.83
2022-09-24T17:03:32.847Z,1.73
2022-09-24T17:05:59.763Z,1.70
2022-09-24T17:08:46.794Z,1.30
2022-09-24T17:11:13.997Z,1.83
2022-09-24T17:13:40.833Z,1.52
2022-09-24T17:16:07.710Z,1.70
2022-09-24T17:18:34.832Z,1.63
2022-09-24T17:21:07.666Z,1.25
2022-09-24T17:23:34.546Z,1.60
2022-09-24T17:26:13.447Z,1.75
2022-09-24T17:28:42.259Z,1.65
2022-09-24T17:31:11.267Z,1.55
2022-09-24T17:33:43.323Z,1.60
2022-09-24T17:36:12.679Z,1.60
2022-09-24T17:38:39.671Z,1.73
2022-09-24T17:41:09.983Z,1.40
2022-09-24T17:43:37.375Z,1.70
2022-09-24T17:46:13.610Z,1.48
2022-09-24T17:48:44.757Z,1.48
2022-09-24T17:51:16.266Z,1.70
2022-09-24T17:53:43.617Z,1.75
2022-09-24T17:56:12.461Z,1.35
2022-09-24T17:58:41.399Z,1.40
2022-09-24T18:01:22.886Z,1.52
2022-09-24T18:03:57.121Z,1.90
2022-09-24T18:06:28.117Z,1.48
2022-09-24T18:08:57.353Z,1.67
2022-09-24T18:11:26.564Z,1.80
2022-09-24T18:13:55.671Z,2.13
2022-09-24T18:16:25.183Z,2.35
2022-09-24T18:18:52.417Z,3.00
2022-09-24T18:21:22.231Z,2.65
2022-09-24T18:23:51.743Z,3.47
2022-09-24T18:26:32.618Z,3.00
2022-09-24T18:29:02.270Z,3.28
2022-09-24T18:31:30.095Z,2.85
2022-09-24T18:34:05.891Z,2.92
2022-09-24T18:36:35.159Z,2.25
2022-09-24T18:39:02.716Z,2.50
2022-09-24T18:41:30.993Z,2.70
2022-09-24T18:44:01.588Z,2.40
2022-09-24T18:46:30.612Z,2.42
2022-09-24T18:48:58.948Z,2.65
2022-09-24T18:51:32.147Z,2.35
2022-09-24T18:56:27.782Z,2.13
2022-09-24T18:58:59.175Z,2.05
2022-09-24T19:01:27.159Z,1.85
2022-09-24T19:04:00.550Z,2.13
2022-09-24T19:08:54.908Z,2.13
2022-09-24T19:11:22.907Z,2.00
2022-09-24T19:13:53.928Z,2.08
2022-09-24T19:16:25.483Z,2.05
2022-09-24T19:18:53.708Z,2.28
2022-09-24T19:21:23.207Z,2.20
2022-09-24T19:23:52.699Z,2.63
2022-09-24T19:26:22.551Z,2.05
2022-09-24T19:28:52.999Z,2.28
2022-09-24T19:31:22.210Z,1.88
2022-09-24T19:33:50.304Z,2.25
2022-09-24T19:36:17.479Z,1.70
2022-09-24T19:38:44.986Z,2.05
2022-09-24T19:41:13.503Z,1.90
2022-09-24T19:43:43.496Z,2.08
2022-09-24T19:46:13.047Z,2.10
2022-09-24T19:48:41.494Z,2.25
2022-09-24T19:51:11.983Z,2.25
2022-09-24T19:53:39.172Z,2.15
2022-09-24T19:56:07.974Z,2.75
2022-09-24T19:58:35.194Z,2.05
2022-09-24T20:01:03.567Z,2.00
2022-09-24T20:03:32.068Z,1.90
2022-09-24T20:05:59.089Z,2.10
2022-09-24T20:08:25.837Z,2.35
2022-09-24T20:10:52.745Z,2.22
2022-09-24T20:13:21.265Z,2.25
2022-09-24T20:15:57.640Z,2.90
2022-09-24T20:18:24.597Z,2.05
2022-09-24T20:20:53.721Z,2.15
2022-09-24T20:23:21.510Z,2.65
2022-09-24T20:26:11.264Z,1.60
2022-09-24T20:28:38.801Z,2.17
2022-09-24T20:31:13.465Z,2.00
2022-09-24T20:33:42.549Z,2.08
2022-09-24T20:36:16.497Z,2.28
2022-09-24T20:38:47.411Z,2.03
2022-09-24T20:41:16.644Z,2.42
2022-09-24T20:43:44.451Z,2.60
2022-09-24T20:46:22.045Z,2.33
2022-09-24T20:48:48.988Z,2.38
2022-09-24T20:51:18.342Z,2.88
2022-09-24T20:53:46.447Z,2.50
2022-09-24T20:56:14.134Z,2.22
2022-09-24T20:58:41.567Z,2.42
2022-09-24T21:01:10.170Z,2.20
2022-09-24T21:03:44.318Z,2.05
2022-09-24T21:06:12.603Z,2.70
2022-09-24T21:08:44.308Z,2.22
2022-09-24T21:11:22.286Z,2.42
2022-09-24T21:13:51.690Z,2.63
2022-09-24T21:16:24.077Z,2.03
2022-09-24T21:18:54.473Z,2.53
2022-09-24T21:21:26.455Z,1.83
2022-09-24T21:23:54.810Z,2.10
2022-09-24T21:26:32.313Z,2.20
2022-09-24T21:29:11.546Z,2.00
2022-09-24T21:31:39.923Z,2.03
2022-09-24T21:34:07.457Z,2.30
2022-09-24T21:36:42.884Z,1.90
2022-09-24T21:39:28.622Z,2.00
2022-09-24T21:41:59.346Z,1.85
2022-09-24T21:44:26.368Z,1.98
2022-09-24T21:46:53.726Z,2.15
2022-09-24T21:49:20.838Z,2.80
2022-09-24T21:51:47.637Z,2.17
2022-09-24T21:54:17.224Z,2.08
2022-09-24T21:56:45.300Z,1.80
2022-09-24T21:59:31.137Z,1.63
2022-09-24T22:01:57.858Z,1.63
2022-09-24T22:04:24.529Z,2.35
2022-09-24T22:06:51.416Z,1.80
2022-09-24T22:09:18.814Z,1.77
2022-09-24T22:11:45.708Z,2.50
2022-09-24T22:14:13.248Z,1.95
2022-09-24T22:16:40.817Z,2.70
2022-09-24T22:19:09.403Z,2.55
2022-09-24T22:21:36.827Z,1.90
2022-09-24T22:24:04.502Z,2.03
2022-09-24T22:26:31.343Z,2.20
2022-09-24T22:28:58.787Z,2.50
2022-09-24T22:31:26.085Z,2.38
2022-09-24T22:34:11.941Z,2.38
2022-09-24T22:36:38.815Z,2.30
2022-09-24T22:39:06.472Z,2.20
2022-09-24T22:41:40.145Z,2.03
2022-09-24T22:44:07.508Z,2.05
2022-09-24T22:46:36.460Z,2.10
2022-09-24T22:49:04.189Z,2.30
2022-09-24T22:51:31.129Z,1.88
2022-09-24T22:54:00.313Z,2.00
2022-09-24T22:56:27.811Z,1.90
2022-09-24T22:58:56.991Z,1.80
2022-09-24T23:01:44.535Z,2.17
2022-09-24T23:04:15.325Z,1.88
2022-09-24T23:06:43.742Z,2.17
2022-09-24T23:09:11.355Z,1.75
2022-09-24T23:11:38.209Z,2.10
2022-09-24T23:14:07.960Z,1.98
2022-09-24T23:16:37.317Z,1.58
2022-09-24T23:19:08.133Z,1.77
2022-09-24T23:21:35.322Z,2.42
2022-09-24T23:24:04.860Z,1.77
2022-09-24T23:26:32.190Z,1.95
2022-09-24T23:29:00.750Z,1.80
2022-09-24T23:31:30.950Z,2.03
2022-09-24T23:33:59.071Z,2.17
2022-09-24T23:36:27.759Z,2.15
2022-09-24T23:38:54.551Z,1.92
2022-09-24T23:41:21.830Z,1.50
2022-09-24T23:43:49.015Z,2.25
2022-09-24T23:46:16.381Z,2.17
2022-09-24T23:48:43.366Z,1.95
2022-09-24T23:51:10.595Z,1.90
2022-09-24T23:53:38.076Z,1.85
2022-09-24T23:56:06.301Z,2.00
2022-09-24T23:58:33.197Z,2.00
